sensor_id;sensor_type;location;lat;lon;timestamp;pressure;altitude;pressure_sealevel;temperature;humidity
66857;BME280;53766;50.280;19.160;2024-02-04T00:00:07;98367.38;;;16.90;52.50
66857;BME280;53766;50.280;19.160;2024-02-04T00:02:35;98375.53;;;16.89;52.37
66857;BME280;53766;50.280;19.160;2024-02-04T00:05:02;98370.22;;;16.89;52.42
66857;BME280;53766;50.280;19.160;2024-02-04T00:07:31;98368.19;;;16.91;52.48
66857;BME280;53766;50.280;19.160;2024-02-04T00:09:58;98366.53;;;16.90;52.34
66857;BME280;53766;50.280;19.160;2024-02-04T00:12:27;98366.53;;;16.90;52.52
66857;BME280;53766;50.280;19.160;2024-02-04T00:14:54;98364.72;;;16.90;52.56
66857;BME280;53766;50.280;19.160;2024-02-04T00:17:22;98359.38;;;16.90;52.52
66857;BME280;53766;50.280;19.160;2024-02-04T00:19:49;98364.72;;;16.90;52.50
66857;BME280;53766;50.280;19.160;2024-02-04T00:22:17;98357.72;;;16.89;52.50
66857;BME280;53766;50.280;19.160;2024-02-04T00:24:47;98359.56;;;16.89;52.47
66857;BME280;53766;50.280;19.160;2024-02-04T00:27:15;98362.88;;;16.91;52.68
66857;BME280;53766;50.280;19.160;2024-02-04T00:29:42;98365.53;;;16.91;52.71
66857;BME280;53766;50.280;19.160;2024-02-04T00:32:10;98363.88;;;16.90;52.49
66857;BME280;53766;50.280;19.160;2024-02-04T00:34:37;98377.16;;;16.90;52.54
66857;BME280;53766;50.280;19.160;2024-02-04T00:37:06;98377.16;;;16.90;52.66
66857;BME280;53766;50.280;19.160;2024-02-04T00:39:34;98377.16;;;16.90;52.68
66857;BME280;53766;50.280;19.160;2024-02-04T00:42:01;98381.66;;;16.89;52.70
66857;BME280;53766;50.280;19.160;2024-02-04T00:44:29;98366.53;;;16.90;52.62
66857;BME280;53766;50.280;19.160;2024-02-04T00:46:56;98375.53;;;16.89;52.60
66857;BME280;53766;50.280;19.160;2024-02-04T00:49:24;98377.16;;;16.90;52.75
66857;BME280;53766;50.280;19.160;2024-02-04T00:51:54;98366.53;;;16.90;52.69
66857;BME280;53766;50.280;19.160;2024-02-04T00:54:22;98349.75;;;16.89;52.66
66857;BME280;53766;50.280;19.160;2024-02-04T00:56:49;98349.75;;;16.89;52.71
66857;BME280;53766;50.280;19.160;2024-02-04T00:59:17;98350.56;;;16.90;52.78
66857;BME280;53766;50.280;19.160;2024-02-04T01:01:44;98348.94;;;16.89;52.59
66857;BME280;53766;50.280;19.160;2024-02-04T01:04:12;98346.28;;;16.89;52.59
66857;BME280;53766;50.280;19.160;2024-02-04T01:06:40;98339.09;;;16.89;52.88
66857;BME280;53766;50.280;19.160;2024-02-04T01:09:23;98343.63;;;16.89;52.80
66857;BME280;53766;50.280;19.160;2024-02-04T01:11:50;98342.59;;;16.90;52.83
66857;BME280;53766;50.280;19.160;2024-02-04T01:14:20;98347.09;;;16.89;52.74
66857;BME280;53766;50.280;19.160;2024-02-04T01:16:47;98340.97;;;16.89;52.70
66857;BME280;53766;50.280;19.160;2024-02-04T01:19:15;98333.78;;;16.89;52.75
66857;BME280;53766;50.280;19.160;2024-02-04T01:21:43;98323.97;;;16.90;52.87
66857;BME280;53766;50.280;19.160;2024-02-04T01:24:12;98325.81;;;16.89;52.72
66857;BME280;53766;50.280;19.160;2024-02-04T01:26:39;98322.34;;;16.89;52.72
66857;BME280;53766;50.280;19.160;2024-02-04T01:29:07;98325.63;;;16.91;52.81
66857;BME280;53766;50.280;19.160;2024-02-04T01:31:34;98323.16;;;16.89;52.75
66857;BME280;53766;50.280;19.160;2024-02-04T01:34:02;98317.00;;;16.89;52.69
66857;BME280;53766;50.280;19.160;2024-02-04T01:36:30;98316.19;;;16.88;52.81
66857;BME280;53766;50.280;19.160;2024-02-04T01:38:58;98301.06;;;16.89;52.78
66857;BME280;53766;50.280;19.160;2024-02-04T01:41:26;98311.69;;;16.89;52.76
66857;BME280;53766;50.280;19.160;2024-02-04T01:43:55;98313.31;;;16.90;52.91
66857;BME280;53766;50.280;19.160;2024-02-04T01:46:23;98321.31;;;16.90;52.74
66857;BME280;53766;50.280;19.160;2024-02-04T01:48:50;98317.81;;;16.89;52.82
66857;BME280;53766;50.280;19.160;2024-02-04T01:51:19;98313.31;;;16.90;52.78
66857;BME280;53766;50.280;19.160;2024-02-04T01:53:48;98329.28;;;16.90;52.77
66857;BME280;53766;50.280;19.160;2024-02-04T01:56:17;98315.16;;;16.89;52.52
66857;BME280;53766;50.280;19.160;2024-02-04T01:58:45;98322.97;;;16.91;52.71
66857;BME280;53766;50.280;19.160;2024-02-04T02:01:13;98325.63;;;16.91;52.63
66857;BME280;53766;50.280;19.160;2024-02-04T02:03:41;98334.59;;;16.90;52.65
66857;BME280;53766;50.280;19.160;2024-02-04T02:06:09;98330.31;;;16.89;53.05
66857;BME280;53766;50.280;19.160;2024-02-04T02:08:37;98342.59;;;16.90;52.70
66857;BME280;53766;50.280;19.160;2024-02-04T02:11:11;98398.66;;;16.88;52.86
66857;BME280;53766;50.280;19.160;2024-02-04T02:13:43;98375.53;;;16.89;52.64
66857;BME280;53766;50.280;19.160;2024-02-04T02:16:18;98374.72;;;16.88;52.60
66857;BME280;53766;50.280;19.160;2024-02-04T02:19:03;98381.88;;;16.88;52.81
66857;BME280;53766;50.280;19.160;2024-02-04T02:21:56;98378.38;;;16.87;52.68
66857;BME280;53766;50.280;19.160;2024-02-04T02:26:58;98370.63;;;16.85;52.69
66857;BME280;53766;50.280;19.160;2024-02-04T02:29:26;98366.94;;;16.86;52.76
66857;BME280;53766;50.280;19.160;2024-02-04T02:31:53;98355.47;;;16.86;52.53
66857;BME280;53766;50.280;19.160;2024-02-04T02:34:21;98365.31;;;16.85;52.81
66857;BME280;53766;50.280;19.160;2024-02-04T02:39:42;98360.97;;;16.84;52.61
66857;BME280;53766;50.280;19.160;2024-02-04T02:42:10;98368.16;;;16.84;52.46
66857;BME280;53766;50.280;19.160;2024-02-04T02:44:39;98362.00;;;16.83;52.82
66857;BME280;53766;50.280;19.160;2024-02-04T02:47:07;98375.31;;;16.83;52.70
66857;BME280;53766;50.280;19.160;2024-02-04T02:49:36;98371.81;;;16.83;52.58
66857;BME280;53766;50.280;19.160;2024-02-04T02:52:04;98375.31;;;16.83;52.72
66857;BME280;53766;50.280;19.160;2024-02-04T02:54:32;98370.00;;;16.83;52.77
66857;BME280;53766;50.280;19.160;2024-02-04T02:57:00;98358.72;;;16.81;52.69
66857;BME280;53766;50.280;19.160;2024-02-04T02:59:28;98348.91;;;16.82;52.73
66857;BME280;53766;50.280;19.160;2024-02-04T03:01:56;98335.78;;;16.80;52.64
66857;BME280;53766;50.280;19.160;2024-02-04T03:04:24;98341.91;;;16.81;52.71
66857;BME280;53766;50.280;19.160;2024-02-04T03:06:52;98327.00;;;16.80;52.79
66857;BME280;53766;50.280;19.160;2024-02-04T03:09:19;98324.34;;;16.80;52.88
66857;BME280;53766;50.280;19.160;2024-02-04T03:11:47;98319.16;;;16.78;52.64
66857;BME280;53766;50.280;19.160;2024-02-04T03:14:16;98315.50;;;16.79;52.62
66857;BME280;53766;50.280;19.160;2024-02-04T03:16:44;98324.50;;;16.78;52.82
66857;BME280;53766;50.280;19.160;2024-02-04T03:19:12;98324.50;;;16.78;52.78
66857;BME280;53766;50.280;19.160;2024-02-04T03:21:40;98320.19;;;16.77;52.72
66857;BME280;53766;50.280;19.160;2024-02-04T03:24:07;98332.47;;;16.78;52.74
66857;BME280;53766;50.280;19.160;2024-02-04T03:26:35;98336.16;;;16.77;52.62
66857;BME280;53766;50.280;19.160;2024-02-04T03:29:02;98338.81;;;16.77;52.68
66857;BME280;53766;50.280;19.160;2024-02-04T03:31:32;98338.00;;;16.77;52.80
66857;BME280;53766;50.280;19.160;2024-02-04T03:34:00;98330.84;;;16.77;52.60
66857;BME280;53766;50.280;19.160;2024-02-04T03:36:28;98316.91;;;16.75;52.78
66857;BME280;53766;50.280;19.160;2024-02-04T03:38:55;98319.56;;;16.75;52.72
66857;BME280;53766;50.280;19.160;2024-02-04T03:41:23;98334.72;;;16.75;52.82
66857;BME280;53766;50.280;19.160;2024-02-04T03:43:51;98328.38;;;16.76;52.67
66857;BME280;53766;50.280;19.160;2024-02-04T03:46:18;98327.56;;;16.75;52.77
66857;BME280;53766;50.280;19.160;2024-02-04T03:48:46;98331.84;;;16.76;52.75
66857;BME280;53766;50.280;19.160;2024-02-04T03:51:18;98338.19;;;16.75;52.90
66857;BME280;53766;50.280;19.160;2024-02-04T03:53:47;98331.22;;;16.74;52.79
66857;BME280;53766;50.280;19.160;2024-02-04T03:56:15;98336.53;;;16.74;52.77
66857;BME280;53766;50.280;19.160;2024-02-04T03:58:43;98331.22;;;16.74;52.75
66857;BME280;53766;50.280;19.160;2024-02-04T04:01:11;98326.75;;;16.75;52.75
66857;BME280;53766;50.280;19.160;2024-02-04T04:03:40;98329.19;;;16.76;52.93
66857;BME280;53766;50.280;19.160;2024-02-04T04:06:10;98327.56;;;16.75;52.78
66857;BME280;53766;50.280;19.160;2024-02-04T04:08:38;98341.84;;;16.74;52.71
66857;BME280;53766;50.280;19.160;2024-02-04T04:11:08;98336.53;;;16.74;52.84
66857;BME280;53766;50.280;19.160;2024-02-04T04:13:37;98340.84;;;16.75;52.93
66857;BME280;53766;50.280;19.160;2024-02-04T04:16:05;98331.03;;;16.76;52.65
66857;BME280;53766;50.280;19.160;2024-02-04T04:18:33;98328.56;;;16.74;52.77
66857;BME280;53766;50.280;19.160;2024-02-04T04:21:01;98325.91;;;16.74;52.52
66857;BME280;53766;50.280;19.160;2024-02-04T04:23:29;98336.53;;;16.74;52.84
66857;BME280;53766;50.280;19.160;2024-02-04T04:25:56;98332.06;;;16.75;52.80
66857;BME280;53766;50.280;19.160;2024-02-04T04:28:24;98331.44;;;16.73;52.60
66857;BME280;53766;50.280;19.160;2024-02-04T04:30:51;98325.91;;;16.74;52.75
66857;BME280;53766;50.280;19.160;2024-02-04T04:33:19;98331.22;;;16.74;52.86
66857;BME280;53766;50.280;19.160;2024-02-04T04:35:47;98328.56;;;16.74;52.89
66857;BME280;53766;50.280;19.160;2024-02-04T04:38:15;98329.59;;;16.73;52.73
66857;BME280;53766;50.280;19.160;2024-02-04T04:40:43;98325.91;;;16.74;52.79
66857;BME280;53766;50.280;19.160;2024-02-04T04:43:10;98328.56;;;16.74;52.59
66857;BME280;53766;50.280;19.160;2024-02-04T04:45:38;98334.91;;;16.73;52.63
66857;BME280;53766;50.280;19.160;2024-02-04T04:48:05;98324.25;;;16.73;52.74
66857;BME280;53766;50.280;19.160;2024-02-04T04:50:35;98326.13;;;16.73;52.65
66857;BME280;53766;50.280;19.160;2024-02-04T04:53:03;98331.44;;;16.73;52.73
66857;BME280;53766;50.280;19.160;2024-02-04T04:55:30;98331.44;;;16.73;52.61
66857;BME280;53766;50.280;19.160;2024-02-04T04:57:58;98329.59;;;16.73;52.71
66857;BME280;53766;50.280;19.160;2024-02-04T05:00:26;98334.91;;;16.73;52.53
66857;BME280;53766;50.280;19.160;2024-02-04T05:02:53;98349.19;;;16.72;52.40
66857;BME280;53766;50.280;19.160;2024-02-04T05:05:21;98349.81;;;16.74;52.67
66857;BME280;53766;50.280;19.160;2024-02-04T05:07:49;98355.38;;;16.73;52.49
66857;BME280;53766;50.280;19.160;2024-02-04T05:10:17;98353.53;;;16.73;52.46
66857;BME280;53766;50.280;19.160;2024-02-04T05:12:45;98361.50;;;16.73;52.71
66857;BME280;53766;50.280;19.160;2024-02-04T05:15:12;98340.22;;;16.73;52.37
66857;BME280;53766;50.280;19.160;2024-02-04T05:17:40;98334.91;;;16.73;52.35
66857;BME280;53766;50.280;19.160;2024-02-04T05:20:08;98341.03;;;16.74;52.53
66857;BME280;53766;50.280;19.160;2024-02-04T05:22:36;98339.19;;;16.74;52.89
66857;BME280;53766;50.280;19.160;2024-02-04T05:25:04;98336.53;;;16.74;52.58
66857;BME280;53766;50.280;19.160;2024-02-04T05:27:33;98331.22;;;16.74;52.67
66857;BME280;53766;50.280;19.160;2024-02-04T05:30:02;98334.91;;;16.73;52.81
66857;BME280;53766;50.280;19.160;2024-02-04T05:32:30;98331.44;;;16.73;52.74
66857;BME280;53766;50.280;19.160;2024-02-04T05:34:57;98333.25;;;16.72;52.82
66857;BME280;53766;50.280;19.160;2024-02-04T05:37:25;98341.84;;;16.74;53.02
66857;BME280;53766;50.280;19.160;2024-02-04T05:39:54;98339.19;;;16.74;53.08
66857;BME280;53766;50.280;19.160;2024-02-04T05:42:21;98351.31;;;16.77;53.21
66857;BME280;53766;50.280;19.160;2024-02-04T05:44:49;98349.66;;;16.76;53.29
66857;BME280;53766;50.280;19.160;2024-02-04T05:47:16;98354.97;;;16.76;53.15
66857;BME280;53766;50.280;19.160;2024-02-04T05:49:44;98352.94;;;16.78;53.24
66857;BME280;53766;50.280;19.160;2024-02-04T05:52:12;98357.44;;;16.77;53.21
66857;BME280;53766;50.280;19.160;2024-02-04T05:54:40;98363.56;;;16.78;53.26
66857;BME280;53766;50.280;19.160;2024-02-04T05:57:08;98367.03;;;16.78;53.31
66857;BME280;53766;50.280;19.160;2024-02-04T05:59:35;98369.69;;;16.78;53.35
66857;BME280;53766;50.280;19.160;2024-02-04T06:02:03;98353.75;;;16.78;53.17
66857;BME280;53766;50.280;19.160;2024-02-04T06:04:31;98363.19;;;16.81;53.19
66857;BME280;53766;50.280;19.160;2024-02-04T06:07:00;98343.94;;;16.79;53.06
66857;BME280;53766;50.280;19.160;2024-02-04T06:09:27;98341.28;;;16.79;52.95
66857;BME280;53766;50.280;19.160;2024-02-04T06:11:55;98335.13;;;16.78;52.96
66857;BME280;53766;50.280;19.160;2024-02-04T06:14:23;98339.44;;;16.79;52.98
66857;BME280;53766;50.280;19.160;2024-02-04T06:16:51;98339.44;;;16.79;52.99
66857;BME280;53766;50.280;19.160;2024-02-04T06:19:18;98349.28;;;16.79;53.01
66857;BME280;53766;50.280;19.160;2024-02-04T06:21:46;98350.09;;;16.79;53.00
66857;BME280;53766;50.280;19.160;2024-02-04T06:24:13;98359.06;;;16.78;53.05
66857;BME280;53766;50.280;19.160;2024-02-04T06:26:44;98348.44;;;16.78;52.88
66857;BME280;53766;50.280;19.160;2024-02-04T06:29:12;98350.09;;;16.79;52.74
66857;BME280;53766;50.280;19.160;2024-02-04T06:31:39;98367.88;;;16.79;52.91
66857;BME280;53766;50.280;19.160;2024-02-04T06:34:07;98355.41;;;16.79;52.80
66857;BME280;53766;50.280;19.160;2024-02-04T06:36:34;98331.47;;;16.79;52.82
66857;BME280;53766;50.280;19.160;2024-02-04T06:39:02;98333.31;;;16.79;52.82
66857;BME280;53766;50.280;19.160;2024-02-04T06:41:30;98323.50;;;16.79;52.85
66857;BME280;53766;50.280;19.160;2024-02-04T06:43:57;98322.50;;;16.80;52.80
66857;BME280;53766;50.280;19.160;2024-02-04T06:46:26;98333.13;;;16.80;52.81
66857;BME280;53766;50.280;19.160;2024-02-04T06:48:55;98329.66;;;16.80;52.96
66857;BME280;53766;50.280;19.160;2024-02-04T06:51:22;98331.28;;;16.81;52.73
66857;BME280;53766;50.280;19.160;2024-02-04T06:53:50;98339.25;;;16.81;52.82
66857;BME280;53766;50.280;19.160;2024-02-04T06:56:18;98345.44;;;16.81;52.54
66857;BME280;53766;50.280;19.160;2024-02-04T06:58:46;98351.09;;;16.78;52.56
66857;BME280;53766;50.280;19.160;2024-02-04T07:01:14;98362.38;;;16.80;52.62
66857;BME280;53766;50.280;19.160;2024-02-04T07:03:42;98377.53;;;16.80;52.64
66857;BME280;53766;50.280;19.160;2024-02-04T07:06:10;98376.50;;;16.81;52.70
66857;BME280;53766;50.280;19.160;2024-02-04T07:08:38;98374.03;;;16.79;52.69
66857;BME280;53766;50.280;19.160;2024-02-04T07:11:05;98388.97;;;16.80;52.68
66857;BME280;53766;50.280;19.160;2024-02-04T07:13:34;98385.66;;;16.78;52.55
66857;BME280;53766;50.280;19.160;2024-02-04T07:16:01;98387.31;;;16.79;52.60
66857;BME280;53766;50.280;19.160;2024-02-04T07:18:29;98387.31;;;16.79;52.63
66857;BME280;53766;50.280;19.160;2024-02-04T07:20:57;98397.16;;;16.79;52.65
66857;BME280;53766;50.280;19.160;2024-02-04T07:23:24;98411.25;;;16.79;52.73
66857;BME280;53766;50.280;19.160;2024-02-04T07:25:52;98404.13;;;16.80;52.66
66857;BME280;53766;50.280;19.160;2024-02-04T07:28:19;98385.50;;;16.80;52.84
66857;BME280;53766;50.280;19.160;2024-02-04T07:30:47;98390.81;;;16.80;52.94
66857;BME280;53766;50.280;19.160;2024-02-04T07:33:15;98403.28;;;16.79;53.01
66857;BME280;53766;50.280;19.160;2024-02-04T07:35:42;98403.09;;;16.81;53.24
66857;BME280;53766;50.280;19.160;2024-02-04T07:38:10;98406.94;;;16.78;53.08
66857;BME280;53766;50.280;19.160;2024-02-04T07:40:37;98397.97;;;16.79;53.16
66857;BME280;53766;50.280;19.160;2024-02-04T07:43:05;98396.28;;;16.78;53.08
66857;BME280;53766;50.280;19.160;2024-02-04T07:45:34;98394.66;;;16.77;53.01
66857;BME280;53766;50.280;19.160;2024-02-04T07:48:02;98402.66;;;16.77;53.22
66857;BME280;53766;50.280;19.160;2024-02-04T07:50:29;98401.63;;;16.78;53.42
66857;BME280;53766;50.280;19.160;2024-02-04T07:52:57;98399.19;;;16.77;53.24
66857;BME280;53766;50.280;19.160;2024-02-04T07:55:25;98391.19;;;16.77;53.44
66857;BME280;53766;50.280;19.160;2024-02-04T07:57:52;98388.53;;;16.77;53.33
66857;BME280;53766;50.280;19.160;2024-02-04T08:00:20;98389.34;;;16.77;53.39
66857;BME280;53766;50.280;19.160;2024-02-04T08:02:48;98384.03;;;16.77;53.41
66857;BME280;53766;50.280;19.160;2024-02-04T08:05:15;98384.03;;;16.77;53.20
66857;BME280;53766;50.280;19.160;2024-02-04T08:07:43;98396.28;;;16.78;53.22
66857;BME280;53766;50.280;19.160;2024-02-04T08:10:11;98395.47;;;16.78;53.22
66857;BME280;53766;50.280;19.160;2024-02-04T08:12:40;98389.97;;;16.79;53.10
66857;BME280;53766;50.280;19.160;2024-02-04T08:15:07;98390.97;;;16.78;53.36
66857;BME280;53766;50.280;19.160;2024-02-04T08:17:35;98391.81;;;16.79;53.39
66857;BME280;53766;50.280;19.160;2024-02-04T08:20:03;98393.47;;;16.80;53.16
66857;BME280;53766;50.280;19.160;2024-02-04T08:22:32;98388.16;;;16.80;53.38
66857;BME280;53766;50.280;19.160;2024-02-04T08:24:59;98381.00;;;16.80;53.19
66857;BME280;53766;50.280;19.160;2024-02-04T08:27:29;98380.00;;;16.81;53.51
66857;BME280;53766;50.280;19.160;2024-02-04T08:29:57;98386.94;;;16.82;53.43
66857;BME280;53766;50.280;19.160;2024-02-04T08:32:25;98390.63;;;16.81;53.58
66857;BME280;53766;50.280;19.160;2024-02-04T08:34:52;98397.59;;;16.82;53.50
66857;BME280;53766;50.280;19.160;2024-02-04T08:37:20;98389.44;;;16.84;53.43
66857;BME280;53766;50.280;19.160;2024-02-04T08:39:47;98390.25;;;16.84;53.46
66857;BME280;53766;50.280;19.160;2024-02-04T08:42:15;98384.91;;;16.84;53.55
66857;BME280;53766;50.280;19.160;2024-02-04T08:44:43;98388.22;;;16.86;53.48
66857;BME280;53766;50.280;19.160;2024-02-04T08:47:11;98398.84;;;16.86;53.48
66857;BME280;53766;50.280;19.160;2024-02-04T08:49:41;98388.22;;;16.86;53.60
66857;BME280;53766;50.280;19.160;2024-02-04T08:52:09;98391.50;;;16.89;53.61
66857;BME280;53766;50.280;19.160;2024-02-04T08:54:36;98388.22;;;16.86;53.52
66857;BME280;53766;50.280;19.160;2024-02-04T08:57:04;98394.56;;;16.85;53.44
66857;BME280;53766;50.280;19.160;2024-02-04T08:59:32;98397.22;;;16.85;53.57
66857;BME280;53766;50.280;19.160;2024-02-04T09:02:00;98392.72;;;16.86;53.53
66857;BME280;53766;50.280;19.160;2024-02-04T09:04:27;98398.84;;;16.86;53.48
66857;BME280;53766;50.280;19.160;2024-02-04T09:06:55;98395.38;;;16.86;53.50
66857;BME280;53766;50.280;19.160;2024-02-04T09:09:23;98388.22;;;16.86;53.53
66857;BME280;53766;50.280;19.160;2024-02-04T09:11:50;98405.81;;;16.88;53.54
66857;BME280;53766;50.280;19.160;2024-02-04T09:14:18;98384.53;;;16.88;53.51
66857;BME280;53766;50.280;19.160;2024-02-04T09:16:46;98382.69;;;16.88;53.40
66857;BME280;53766;50.280;19.160;2024-02-04T09:19:14;98391.50;;;16.89;53.39
66857;BME280;53766;50.280;19.160;2024-02-04T09:21:42;98388.22;;;16.86;53.46
66857;BME280;53766;50.280;19.160;2024-02-04T09:24:09;98380.84;;;16.89;53.39
66857;BME280;53766;50.280;19.160;2024-02-04T09:26:37;98380.84;;;16.89;53.29
66857;BME280;53766;50.280;19.160;2024-02-04T09:29:04;98389.03;;;16.87;53.52
66857;BME280;53766;50.280;19.160;2024-02-04T09:31:33;98390.69;;;16.88;53.33
66857;BME280;53766;50.280;19.160;2024-02-04T09:34:01;98387.00;;;16.89;53.38
66857;BME280;53766;50.280;19.160;2024-02-04T09:36:29;98402.13;;;16.89;53.38
66857;BME280;53766;50.280;19.160;2024-02-04T09:38:57;98400.50;;;16.88;53.46
66857;BME280;53766;50.280;19.160;2024-02-04T09:41:25;98395.19;;;16.88;53.44
66857;BME280;53766;50.280;19.160;2024-02-04T09:43:54;98396.19;;;16.86;53.29
66857;BME280;53766;50.280;19.160;2024-02-04T09:46:23;98399.66;;;16.87;53.49
66857;BME280;53766;50.280;19.160;2024-02-04T09:48:51;98389.88;;;16.88;53.37
66857;BME280;53766;50.280;19.160;2024-02-04T09:51:21;98393.53;;;16.86;53.37
66857;BME280;53766;50.280;19.160;2024-02-04T09:53:53;98394.34;;;16.87;53.27
66857;BME280;53766;50.280;19.160;2024-02-04T09:56:22;98382.88;;;16.86;53.27
66857;BME280;53766;50.280;19.160;2024-02-04T09:58:51;98381.25;;;16.85;53.20
66857;BME280;53766;50.280;19.160;2024-02-04T10:01:21;98381.25;;;16.85;53.17
66857;BME280;53766;50.280;19.160;2024-02-04T10:03:50;98386.56;;;16.85;53.40
66857;BME280;53766;50.280;19.160;2024-02-04T10:06:18;98398.84;;;16.86;53.38
66857;BME280;53766;50.280;19.160;2024-02-04T10:08:46;98375.94;;;16.85;53.37
66857;BME280;53766;50.280;19.160;2024-02-04T10:11:16;98375.94;;;16.85;53.23
66857;BME280;53766;50.280;19.160;2024-02-04T10:13:48;98378.38;;;16.87;53.39
66857;BME280;53766;50.280;19.160;2024-02-04T10:16:16;98371.44;;;16.86;53.31
66857;BME280;53766;50.280;19.160;2024-02-04T10:18:45;98359.97;;;16.85;53.29
66857;BME280;53766;50.280;19.160;2024-02-04T10:21:20;98352.63;;;16.88;53.29
66857;BME280;53766;50.280;19.160;2024-02-04T10:23:49;98354.44;;;16.87;53.42
66857;BME280;53766;50.280;19.160;2024-02-04T10:26:17;98345.66;;;16.86;53.32
66857;BME280;53766;50.280;19.160;2024-02-04T10:28:48;98350.16;;;16.86;53.35
66857;BME280;53766;50.280;19.160;2024-02-04T10:31:15;98335.81;;;16.87;53.14
66857;BME280;53766;50.280;19.160;2024-02-04T10:33:44;98340.97;;;16.89;53.27
66857;BME280;53766;50.280;19.160;2024-02-04T10:36:13;98348.31;;;16.86;53.39
66857;BME280;53766;50.280;19.160;2024-02-04T10:38:40;98342.00;;;16.88;53.21
66857;BME280;53766;50.280;19.160;2024-02-04T10:41:10;98315.38;;;16.88;53.24
66857;BME280;53766;50.280;19.160;2024-02-04T10:43:43;98322.34;;;16.89;53.44
66857;BME280;53766;50.280;19.160;2024-02-04T10:46:19;98317.81;;;16.89;53.89
66857;BME280;53766;50.280;19.160;2024-02-04T10:48:59;98310.28;;;16.93;54.17
66857;BME280;53766;50.280;19.160;2024-02-04T10:51:30;98318.25;;;16.93;54.49
66857;BME280;53766;50.280;19.160;2024-02-04T10:53:58;98302.50;;;16.91;54.28
66857;BME280;53766;50.280;19.160;2024-02-04T10:56:33;98311.28;;;16.92;54.26
66857;BME280;53766;50.280;19.160;2024-02-04T10:59:03;98304.34;;;16.91;53.89
66857;BME280;53766;50.280;19.160;2024-02-04T11:01:32;98290.00;;;16.92;54.06
66857;BME280;53766;50.280;19.160;2024-02-04T11:04:00;98280.00;;;16.94;54.24
66857;BME280;53766;50.280;19.160;2024-02-04T11:06:29;98281.84;;;16.93;54.08
66857;BME280;53766;50.280;19.160;2024-02-04T11:08:58;98287.16;;;16.93;54.19
66857;BME280;53766;50.280;19.160;2024-02-04T11:11:28;98279.81;;;16.95;54.17
66857;BME280;53766;50.280;19.160;2024-02-04T11:13:59;98266.50;;;16.95;54.04
66857;BME280;53766;50.280;19.160;2024-02-04T11:22:42;98251.34;;;16.96;54.10
66857;BME280;53766;50.280;19.160;2024-02-04T11:27:55;98258.53;;;16.95;53.94
66857;BME280;53766;50.280;19.160;2024-02-04T11:30:23;98252.38;;;16.95;53.89
66857;BME280;53766;50.280;19.160;2024-02-04T11:32:50;98252.38;;;16.95;53.96
66857;BME280;53766;50.280;19.160;2024-02-04T11:35:20;98248.91;;;16.94;54.08
66857;BME280;53766;50.280;19.160;2024-02-04T11:37:49;98247.06;;;16.95;53.98
66857;BME280;53766;50.280;19.160;2024-02-04T11:40:16;98236.44;;;16.95;53.90
66857;BME280;53766;50.280;19.160;2024-02-04T11:42:45;98225.78;;;16.95;54.09
66857;BME280;53766;50.280;19.160;2024-02-04T11:45:13;98224.13;;;16.94;53.74
66857;BME280;53766;50.280;19.160;2024-02-04T11:47:41;98229.44;;;16.94;54.08
66857;BME280;53766;50.280;19.160;2024-02-04T11:50:09;98213.47;;;16.94;54.28
66857;BME280;53766;50.280;19.160;2024-02-04T11:52:39;98209.81;;;16.95;54.28
66857;BME280;53766;50.280;19.160;2024-02-04T11:55:13;98207.16;;;16.95;54.20
66857;BME280;53766;50.280;19.160;2024-02-04T11:57:41;98209.81;;;16.95;54.15
66857;BME280;53766;50.280;19.160;2024-02-04T12:00:13;98204.50;;;16.95;54.07
66857;BME280;53766;50.280;19.160;2024-02-04T12:02:40;98191.19;;;16.95;54.19
66857;BME280;53766;50.280;19.160;2024-02-04T12:05:30;98192.19;;;16.94;54.29
66857;BME280;53766;50.280;19.160;2024-02-04T12:08:00;98185.06;;;16.94;54.24
66857;BME280;53766;50.280;19.160;2024-02-04T12:10:29;98200.81;;;16.96;54.18
66857;BME280;53766;50.280;19.160;2024-02-04T12:13:08;98192.81;;;16.96;54.35
66857;BME280;53766;50.280;19.160;2024-02-04T12:15:35;98192.19;;;16.94;54.16
66857;BME280;53766;50.280;19.160;2024-02-04T12:18:10;98190.16;;;16.96;54.28
66857;BME280;53766;50.280;19.160;2024-02-04T12:20:38;98195.47;;;16.96;54.33
66857;BME280;53766;50.280;19.160;2024-02-04T12:23:07;98204.50;;;16.95;54.37
66857;BME280;53766;50.280;19.160;2024-02-04T12:25:35;98193.03;;;16.94;54.24
66857;BME280;53766;50.280;19.160;2024-02-04T12:28:05;98204.50;;;16.95;54.55
66857;BME280;53766;50.280;19.160;2024-02-04T12:30:33;98216.75;;;16.96;54.34
66857;BME280;53766;50.280;19.160;2024-02-04T12:33:02;98218.41;;;16.97;54.48
66857;BME280;53766;50.280;19.160;2024-02-04T12:35:31;98214.31;;;16.94;54.67
66857;BME280;53766;50.280;19.160;2024-02-04T12:38:00;98215.97;;;16.95;54.35
66857;BME280;53766;50.280;19.160;2024-02-04T12:40:28;98210.81;;;16.94;54.61
66857;BME280;53766;50.280;19.160;2024-02-04T12:42:58;98210.81;;;16.94;54.69
66857;BME280;53766;50.280;19.160;2024-02-04T12:45:32;98203.69;;;16.94;54.66
66857;BME280;53766;50.280;19.160;2024-02-04T12:48:01;98190.38;;;16.94;54.73
66857;BME280;53766;50.280;19.160;2024-02-04T12:50:29;98154.97;;;16.94;54.70
66857;BME280;53766;50.280;19.160;2024-02-04T12:53:05;98149.63;;;16.94;55.01
66857;BME280;53766;50.280;19.160;2024-02-04T12:55:37;98157.84;;;16.92;54.96
66857;BME280;53766;50.280;19.160;2024-02-04T12:58:09;98152.53;;;16.92;54.75
66857;BME280;53766;50.280;19.160;2024-02-04T13:00:40;98140.22;;;16.91;54.73
66857;BME280;53766;50.280;19.160;2024-02-04T13:03:09;98141.88;;;16.92;54.79
66857;BME280;53766;50.280;19.160;2024-02-04T13:05:37;98142.69;;;16.93;55.01
66857;BME280;53766;50.280;19.160;2024-02-04T13:08:06;98153.34;;;16.93;55.13
66857;BME280;53766;50.280;19.160;2024-02-04T13:10:36;98148.81;;;16.93;55.00